sensor_id;sensor_type;location;lat;lon;timestamp;temperature;humidity
53053;DHT22;38934;52.690;6.184;2023-02-13T00:00:18;6.70;99.90
53053;DHT22;38934;52.690;6.184;2023-02-13T00:02:44;6.70;99.90
53053;DHT22;38934;52.690;6.184;2023-02-13T00:05:12;6.70;99.90
53053;DHT22;38934;52.690;6.184;2023-02-13T00:07:38;6.70;99.90
53053;DHT22;38934;52.690;6.184;2023-02-13T00:10:04;6.70;99.90
53053;DHT22;38934;52.690;6.184;2023-02-13T00:12:31;6.70;99.90
53053;DHT22;38934;52.690;6.184;2023-02-13T00:15:04;6.60;99.90
53053;DHT22;38934;52.690;6.184;2023-02-13T00:17:31;6.70;99.90
53053;DHT22;38934;52.690;6.184;2023-02-13T00:19:57;6.70;99.90
53053;DHT22;38934;52.690;6.184;2023-02-13T00:22:25;6.60;99.90
53053;DHT22;38934;52.690;6.184;2023-02-13T00:24:51;6.70;99.90
53053;DHT22;38934;52.690;6.184;2023-02-13T00:27:17;6.60;99.90
53053;DHT22;38934;52.690;6.184;2023-02-13T00:29:49;6.60;99.90
53053;DHT22;38934;52.690;6.184;2023-02-13T00:32:14;6.70;99.90
53053;DHT22;38934;52.690;6.184;2023-02-13T00:34:40;6.60;99.90
53053;DHT22;38934;52.690;6.184;2023-02-13T00:37:08;7.70;99.90
53053;DHT22;38934;52.690;6.184;2023-02-13T00:39:34;7.10;99.90
53053;DHT22;38934;52.690;6.184;2023-02-13T00:41:59;6.60;99.90
53053;DHT22;38934;52.690;6.184;2023-02-13T00:44:25;6.60;99.90
53053;DHT22;38934;52.690;6.184;2023-02-13T00:50:42;6.60;99.90
53053;DHT22;38934;52.690;6.184;2023-02-13T00:53:21;6.60;99.90
53053;DHT22;38934;52.690;6.184;2023-02-13T00:55:47;6.60;99.90
53053;DHT22;38934;52.690;6.184;2023-02-13T00:58:42;6.60;99.90
53053;DHT22;38934;52.690;6.184;2023-02-13T01:01:08;6.60;99.90
53053;DHT22;38934;52.690;6.184;2023-02-13T01:03:33;6.60;99.90
53053;DHT22;38934;52.690;6.184;2023-02-13T01:06:01;6.60;99.90
53053;DHT22;38934;52.690;6.184;2023-02-13T01:08:29;6.60;99.90
53053;DHT22;38934;52.690;6.184;2023-02-13T01:10:55;6.60;99.90
53053;DHT22;38934;52.690;6.184;2023-02-13T01:13:23;7.70;99.90
53053;DHT22;38934;52.690;6.184;2023-02-13T01:15:50;7.00;99.90
53053;DHT22;38934;52.690;6.184;2023-02-13T01:18:27;6.40;99.90
53053;DHT22;38934;52.690;6.184;2023-02-13T01:20:58;7.80;99.90
53053;DHT22;38934;52.690;6.184;2023-02-13T01:23:24;7.80;99.90
53053;DHT22;38934;52.690;6.184;2023-02-13T01:25:58;6.60;99.90
53053;DHT22;38934;52.690;6.184;2023-02-13T01:28:23;6.60;99.90
53053;DHT22;38934;52.690;6.184;2023-02-13T01:30:56;6.60;99.90
53053;DHT22;38934;52.690;6.184;2023-02-13T01:33:23;6.60;99.90
53053;DHT22;38934;52.690;6.184;2023-02-13T01:35:50;6.60;99.90
53053;DHT22;38934;52.690;6.184;2023-02-13T01:38:16;6.60;99.90
53053;DHT22;38934;52.690;6.184;2023-02-13T01:40:51;6.50;99.90
53053;DHT22;38934;52.690;6.184;2023-02-13T01:43:17;6.50;99.90
53053;DHT22;38934;52.690;6.184;2023-02-13T01:45:46;6.50;99.90
53053;DHT22;38934;52.690;6.184;2023-02-13T01:48:18;6.50;99.90
53053;DHT22;38934;52.690;6.184;2023-02-13T01:51:03;6.60;99.90
53053;DHT22;38934;52.690;6.184;2023-02-13T01:53:36;6.60;99.90
53053;DHT22;38934;52.690;6.184;2023-02-13T01:58:45;6.60;99.90
53053;DHT22;38934;52.690;6.184;2023-02-13T02:01:22;6.60;99.90
53053;DHT22;38934;52.690;6.184;2023-02-13T02:03:59;6.60;99.90
53053;DHT22;38934;52.690;6.184;2023-02-13T02:06:33;6.50;99.90
53053;DHT22;38934;52.690;6.184;2023-02-13T02:09:09;6.50;99.90
53053;DHT22;38934;52.690;6.184;2023-02-13T02:12:02;6.50;99.90
53053;DHT22;38934;52.690;6.184;2023-02-13T02:14:30;6.50;99.90
53053;DHT22;38934;52.690;6.184;2023-02-13T02:16:56;6.50;99.90
53053;DHT22;38934;52.690;6.184;2023-02-13T02:25:21;6.50;99.90
53053;DHT22;38934;52.690;6.184;2023-02-13T02:28:04;6.50;99.90
53053;DHT22;38934;52.690;6.184;2023-02-13T02:36:22;6.50;99.90
53053;DHT22;38934;52.690;6.184;2023-02-13T02:39:29;6.50;99.90
53053;DHT22;38934;52.690;6.184;2023-02-13T02:44:41;6.50;99.90
53053;DHT22;38934;52.690;6.184;2023-02-13T02:47:30;6.50;99.90
53053;DHT22;38934;52.690;6.184;2023-02-13T02:50:42;6.50;99.90
53053;DHT22;38934;52.690;6.184;2023-02-13T02:56:36;6.50;99.90
53053;DHT22;38934;52.690;6.184;2023-02-13T02:59:11;6.40;99.90
53053;DHT22;38934;52.690;6.184;2023-02-13T03:01:56;6.40;99.90
53053;DHT22;38934;52.690;6.184;2023-02-13T03:04:45;6.40;99.90
53053;DHT22;38934;52.690;6.184;2023-02-13T03:07:31;7.20;99.90
53053;DHT22;38934;52.690;6.184;2023-02-13T03:10:03;6.40;99.90
53053;DHT22;38934;52.690;6.184;2023-02-13T03:13:00;6.40;99.90
53053;DHT22;38934;52.690;6.184;2023-02-13T03:15:43;6.40;99.90
53053;DHT22;38934;52.690;6.184;2023-02-13T03:18:36;6.40;99.90
53053;DHT22;38934;52.690;6.184;2023-02-13T03:24:42;6.40;99.90
53053;DHT22;38934;52.690;6.184;2023-02-13T03:36:57;6.40;99.90
53053;DHT22;38934;52.690;6.184;2023-02-13T03:42:02;6.40;99.90
53053;DHT22;38934;52.690;6.184;2023-02-13T03:44:36;6.40;99.90
53053;DHT22;38934;52.690;6.184;2023-02-13T03:47:08;6.40;99.90
53053;DHT22;38934;52.690;6.184;2023-02-13T03:49:48;6.40;99.90
53053;DHT22;38934;52.690;6.184;2023-02-13T03:52:53;6.40;99.90
53053;DHT22;38934;52.690;6.184;2023-02-13T03:55:33;6.40;99.90
53053;DHT22;38934;52.690;6.184;2023-02-13T03:58:23;6.40;99.90
53053;DHT22;38934;52.690;6.184;2023-02-13T04:01:12;6.40;99.90
53053;DHT22;38934;52.690;6.184;2023-02-13T04:06:28;6.40;99.90
53053;DHT22;38934;52.690;6.184;2023-02-13T04:08:54;6.40;99.90
53053;DHT22;38934;52.690;6.184;2023-02-13T04:13:56;7.40;99.90
53053;DHT22;38934;52.690;6.184;2023-02-13T04:16:38;6.40;99.90
53053;DHT22;38934;52.690;6.184;2023-02-13T04:19:06;6.40;99.90
53053;DHT22;38934;52.690;6.184;2023-02-13T04:21:34;6.40;99.90
53053;DHT22;38934;52.690;6.184;2023-02-13T04:24:00;6.50;99.90
53053;DHT22;38934;52.690;6.184;2023-02-13T04:26:31;6.50;99.90
53053;DHT22;38934;52.690;6.184;2023-02-13T04:28:57;6.40;99.90
53053;DHT22;38934;52.690;6.184;2023-02-13T04:31:24;6.40;99.90
53053;DHT22;38934;52.690;6.184;2023-02-13T04:33:56;6.40;99.90
53053;DHT22;38934;52.690;6.184;2023-02-13T04:36:22;6.40;99.90
53053;DHT22;38934;52.690;6.184;2023-02-13T04:38:48;6.40;99.90
53053;DHT22;38934;52.690;6.184;2023-02-13T04:41:13;6.40;99.90
53053;DHT22;38934;52.690;6.184;2023-02-13T04:43:43;6.40;99.90
53053;DHT22;38934;52.690;6.184;2023-02-13T04:46:09;7.50;99.90
53053;DHT22;38934;52.690;6.184;2023-02-13T04:48:35;6.40;99.90
53053;DHT22;38934;52.690;6.184;2023-02-13T04:51:00;6.40;99.90
53053;DHT22;38934;52.690;6.184;2023-02-13T04:53:29;6.40;99.90
53053;DHT22;38934;52.690;6.184;2023-02-13T04:55:55;6.40;99.90
53053;DHT22;38934;52.690;6.184;2023-02-13T04:58:20;6.40;99.90
53053;DHT22;38934;52.690;6.184;2023-02-13T05:00:46;6.40;99.90
53053;DHT22;38934;52.690;6.184;2023-02-13T05:03:12;6.40;99.90
53053;DHT22;38934;52.690;6.184;2023-02-13T05:05:38;6.40;99.90
53053;DHT22;38934;52.690;6.184;2023-02-13T05:08:05;6.40;99.90
53053;DHT22;38934;52.690;6.184;2023-02-13T05:10:33;6.40;99.90
53053;DHT22;38934;52.690;6.184;2023-02-13T05:12:59;6.40;99.90
53053;DHT22;38934;52.690;6.184;2023-02-13T05:15:25;6.40;99.90
53053;DHT22;38934;52.690;6.184;2023-02-13T05:17:51;6.40;99.90
53053;DHT22;38934;52.690;6.184;2023-02-13T05:20:17;6.40;99.90
53053;DHT22;38934;52.690;6.184;2023-02-13T05:22:47;6.40;99.90
53053;DHT22;38934;52.690;6.184;2023-02-13T05:25:34;7.20;99.90
53053;DHT22;38934;52.690;6.184;2023-02-13T05:28:00;6.40;99.90
53053;DHT22;38934;52.690;6.184;2023-02-13T05:30:25;6.40;99.90
53053;DHT22;38934;52.690;6.184;2023-02-13T05:32:58;6.40;99.90
53053;DHT22;38934;52.690;6.184;2023-02-13T05:35:24;6.40;99.90
53053;DHT22;38934;52.690;6.184;2023-02-13T05:37:54;6.40;99.90
53053;DHT22;38934;52.690;6.184;2023-02-13T05:40:19;6.40;99.90
53053;DHT22;38934;52.690;6.184;2023-02-13T05:42:46;6.40;99.90
53053;DHT22;38934;52.690;6.184;2023-02-13T05:45:14;6.40;99.90
53053;DHT22;38934;52.690;6.184;2023-02-13T05:47:40;6.40;99.90
53053;DHT22;38934;52.690;6.184;2023-02-13T05:50:06;6.40;99.90
53053;DHT22;38934;52.690;6.184;2023-02-13T05:52:39;6.40;99.90
53053;DHT22;38934;52.690;6.184;2023-02-13T05:55:15;6.40;99.90
53053;DHT22;38934;52.690;6.184;2023-02-13T06:00:55;6.40;99.90
53053;DHT22;38934;52.690;6.184;2023-02-13T06:03:29;6.40;99.90
53053;DHT22;38934;52.690;6.184;2023-02-13T06:05:57;6.40;99.90
53053;DHT22;38934;52.690;6.184;2023-02-13T06:08:26;6.40;99.90
53053;DHT22;38934;52.690;6.184;2023-02-13T06:10:51;7.10;99.90
53053;DHT22;38934;52.690;6.184;2023-02-13T06:13:17;6.40;99.90
53053;DHT22;38934;52.690;6.184;2023-02-13T06:16:06;6.40;99.90
53053;DHT22;38934;52.690;6.184;2023-02-13T06:18:35;6.40;99.90
53053;DHT22;38934;52.690;6.184;2023-02-13T06:21:10;6.40;99.90
53053;DHT22;38934;52.690;6.184;2023-02-13T06:23:39;6.40;99.90
53053;DHT22;38934;52.690;6.184;2023-02-13T06:26:09;7.20;99.90
53053;DHT22;38934;52.690;6.184;2023-02-13T06:28:36;6.40;99.90
53053;DHT22;38934;52.690;6.184;2023-02-13T06:31:14;6.40;99.90
53053;DHT22;38934;52.690;6.184;2023-02-13T06:33:51;6.40;99.90
53053;DHT22;38934;52.690;6.184;2023-02-13T06:36:29;6.40;99.90
53053;DHT22;38934;52.690;6.184;2023-02-13T06:38:58;6.40;99.90
53053;DHT22;38934;52.690;6.184;2023-02-13T06:41:33;6.40;99.90
53053;DHT22;38934;52.690;6.184;2023-02-13T06:43:58;6.40;99.90
53053;DHT22;38934;52.690;6.184;2023-02-13T06:46:28;6.20;99.90
53053;DHT22;38934;52.690;6.184;2023-02-13T06:48:55;6.40;99.90
53053;DHT22;38934;52.690;6.184;2023-02-13T06:51:20;6.40;99.90
53053;DHT22;38934;52.690;6.184;2023-02-13T06:53:48;6.40;99.90
53053;DHT22;38934;52.690;6.184;2023-02-13T06:56:14;6.40;99.90
53053;DHT22;38934;52.690;6.184;2023-02-13T06:58:41;6.40;99.90
53053;DHT22;38934;52.690;6.184;2023-02-13T07:01:06;6.40;99.90
53053;DHT22;38934;52.690;6.184;2023-02-13T07:03:32;6.40;99.90
53053;DHT22;38934;52.690;6.184;2023-02-13T07:05:58;6.40;99.90
53053;DHT22;38934;52.690;6.184;2023-02-13T07:08:26;6.40;99.90
53053;DHT22;38934;52.690;6.184;2023-02-13T07:11:00;6.60;99.90
53053;DHT22;38934;52.690;6.184;2023-02-13T07:13:25;6.50;99.90
53053;DHT22;38934;52.690;6.184;2023-02-13T07:15:51;6.40;99.90
53053;DHT22;38934;52.690;6.184;2023-02-13T07:18:16;6.50;99.90
53053;DHT22;38934;52.690;6.184;2023-02-13T07:20:42;6.50;99.90
53053;DHT22;38934;52.690;6.184;2023-02-13T07:23:09;6.50;99.90
53053;DHT22;38934;52.690;6.184;2023-02-13T07:25:34;6.50;99.90
53053;DHT22;38934;52.690;6.184;2023-02-13T07:28:04;6.60;99.90
53053;DHT22;38934;52.690;6.184;2023-02-13T07:30:31;6.60;99.90
53053;DHT22;38934;52.690;6.184;2023-02-13T07:33:01;6.60;99.90
53053;DHT22;38934;52.690;6.184;2023-02-13T07:35:27;6.60;99.90
53053;DHT22;38934;52.690;6.184;2023-02-13T07:37:53;6.60;99.90
53053;DHT22;38934;52.690;6.184;2023-02-13T07:40:20;6.60;99.90
53053;DHT22;38934;52.690;6.184;2023-02-13T07:42:45;6.70;99.90
53053;DHT22;38934;52.690;6.184;2023-02-13T07:45:11;6.70;99.90
53053;DHT22;38934;52.690;6.184;2023-02-13T07:47:36;6.70;99.90
53053;DHT22;38934;52.690;6.184;2023-02-13T07:50:02;6.70;99.90
53053;DHT22;38934;52.690;6.184;2023-02-13T07:52:30;6.70;99.90
53053;DHT22;38934;52.690;6.184;2023-02-13T07:54:56;6.70;99.90
53053;DHT22;38934;52.690;6.184;2023-02-13T07:57:22;6.80;99.90
53053;DHT22;38934;52.690;6.184;2023-02-13T07:59:49;7.20;99.90
53053;DHT22;38934;52.690;6.184;2023-02-13T08:02:17;6.80;99.90
53053;DHT22;38934;52.690;6.184;2023-02-13T08:04:43;6.80;99.90
53053;DHT22;38934;52.690;6.184;2023-02-13T08:07:11;6.80;99.90
53053;DHT22;38934;52.690;6.184;2023-02-13T08:09:37;6.80;99.90
53053;DHT22;38934;52.690;6.184;2023-02-13T08:12:21;6.80;99.90
53053;DHT22;38934;52.690;6.184;2023-02-13T08:14:48;6.90;99.90
53053;DHT22;38934;52.690;6.184;2023-02-13T08:17:13;6.90;99.90
53053;DHT22;38934;52.690;6.184;2023-02-13T08:19:39;6.90;99.90
53053;DHT22;38934;52.690;6.184;2023-02-13T08:22:05;7.80;99.90
53053;DHT22;38934;52.690;6.184;2023-02-13T08:24:31;6.90;99.90
53053;DHT22;38934;52.690;6.184;2023-02-13T08:26:57;6.90;99.90
53053;DHT22;38934;52.690;6.184;2023-02-13T08:29:23;7.00;99.90
53053;DHT22;38934;52.690;6.184;2023-02-13T08:31:48;7.00;99.90
53053;DHT22;38934;52.690;6.184;2023-02-13T08:34:14;7.00;99.90
53053;DHT22;38934;52.690;6.184;2023-02-13T08:36:40;7.00;99.90
53053;DHT22;38934;52.690;6.184;2023-02-13T08:39:07;7.00;99.90
53053;DHT22;38934;52.690;6.184;2023-02-13T08:41:33;7.10;99.90
53053;DHT22;38934;52.690;6.184;2023-02-13T08:43:59;7.10;99.90
53053;DHT22;38934;52.690;6.184;2023-02-13T08:46:25;7.10;99.90
53053;DHT22;38934;52.690;6.184;2023-02-13T08:48:51;7.20;99.90
53053;DHT22;38934;52.690;6.184;2023-02-13T08:51:16;7.20;99.90
53053;DHT22;38934;52.690;6.184;2023-02-13T08:53:42;7.20;99.90
53053;DHT22;38934;52.690;6.184;2023-02-13T08:56:08;7.90;99.90
53053;DHT22;38934;52.690;6.184;2023-02-13T08:58:34;7.30;99.90
53053;DHT22;38934;52.690;6.184;2023-02-13T09:01:02;7.30;99.90
53053;DHT22;38934;52.690;6.184;2023-02-13T09:03:28;7.30;99.90
53053;DHT22;38934;52.690;6.184;2023-02-13T09:05:58;7.30;99.90
53053;DHT22;38934;52.690;6.184;2023-02-13T09:08:23;7.30;99.90
53053;DHT22;38934;52.690;6.184;2023-02-13T09:10:58;7.40;99.90
53053;DHT22;38934;52.690;6.184;2023-02-13T09:13:26;7.40;99.90
53053;DHT22;38934;52.690;6.184;2023-02-13T09:15:52;7.40;99.90
53053;DHT22;38934;52.690;6.184;2023-02-13T09:18:18;7.40;99.90
53053;DHT22;38934;52.690;6.184;2023-02-13T09:20:43;7.50;99.90
53053;DHT22;38934;52.690;6.184;2023-02-13T09:23:09;7.50;99.90
53053;DHT22;38934;52.690;6.184;2023-02-13T09:25:35;7.50;99.90
53053;DHT22;38934;52.690;6.184;2023-02-13T09:28:01;7.60;99.90
53053;DHT22;38934;52.690;6.184;2023-02-13T09:30:26;7.60;99.90
53053;DHT22;38934;52.690;6.184;2023-02-13T09:32:53;7.60;99.90
53053;DHT22;38934;52.690;6.184;2023-02-13T09:35:19;7.60;99.90
53053;DHT22;38934;52.690;6.184;2023-02-13T09:37:47;7.70;99.90
53053;DHT22;38934;52.690;6.184;2023-02-13T09:40:19;7.70;99.90
53053;DHT22;38934;52.690;6.184;2023-02-13T09:42:46;7.80;99.90
53053;DHT22;38934;52.690;6.184;2023-02-13T09:45:14;7.90;99.90
53053;DHT22;38934;52.690;6.184;2023-02-13T09:47:45;7.80;99.90
53053;DHT22;38934;52.690;6.184;2023-02-13T09:52:37;7.90;99.90
53053;DHT22;38934;52.690;6.184;2023-02-13T09:55:18;8.00;99.90
53053;DHT22;38934;52.690;6.184;2023-02-13T09:58:05;8.00;99.90
53053;DHT22;38934;52.690;6.184;2023-02-13T10:00:37;8.00;99.90
53053;DHT22;38934;52.690;6.184;2023-02-13T10:03:12;8.00;99.90
53053;DHT22;38934;52.690;6.184;2023-02-13T10:05:50;8.10;99.90
53053;DHT22;38934;52.690;6.184;2023-02-13T10:11:12;8.30;99.90
53053;DHT22;38934;52.690;6.184;2023-02-13T10:14:10;8.30;99.90
53053;DHT22;38934;52.690;6.184;2023-02-13T10:19:53;8.40;99.90
53053;DHT22;38934;52.690;6.184;2023-02-13T10:22:28;8.50;99.90
53053;DHT22;38934;52.690;6.184;2023-02-13T10:25:00;8.60;99.90
53053;DHT22;38934;52.690;6.184;2023-02-13T10:27:36;8.60;99.90
53053;DHT22;38934;52.690;6.184;2023-02-13T10:30:14;8.70;99.90
53053;DHT22;38934;52.690;6.184;2023-02-13T10:38:32;8.90;99.90
53053;DHT22;38934;52.690;6.184;2023-02-13T10:43:44;8.90;99.90
53053;DHT22;38934;52.690;6.184;2023-02-13T10:51:44;9.10;99.90
53053;DHT22;38934;52.690;6.184;2023-02-13T11:02:51;9.30;99.90
53053;DHT22;38934;52.690;6.184;2023-02-13T11:05:21;9.30;99.90
53053;DHT22;38934;52.690;6.184;2023-02-13T11:07:48;9.40;99.90
53053;DHT22;38934;52.690;6.184;2023-02-13T11:10:24;9.40;99.90
53053;DHT22;38934;52.690;6.184;2023-02-13T11:12:51;9.40;99.90
53053;DHT22;38934;52.690;6.184;2023-02-13T11:15:31;9.50;99.90
53053;DHT22;38934;52.690;6.184;2023-02-13T11:18:17;10.40;99.90
53053;DHT22;38934;52.690;6.184;2023-02-13T11:20:44;9.70;99.90
53053;DHT22;38934;52.690;6.184;2023-02-13T11:23:33;9.70;99.90
53053;DHT22;38934;52.690;6.184;2023-02-13T11:26:08;9.80;99.90
53053;DHT22;38934;52.690;6.184;2023-02-13T11:28:58;9.90;99.90
53053;DHT22;38934;52.690;6.184;2023-02-13T11:31:33;9.90;99.90
53053;DHT22;38934;52.690;6.184;2023-02-13T11:34:23;10.90;99.90
53053;DHT22;38934;52.690;6.184;2023-02-13T11:37:08;10.10;99.90
53053;DHT22;38934;52.690;6.184;2023-02-13T11:39:39;10.10;99.90
53053;DHT22;38934;52.690;6.184;2023-02-13T11:42:15;10.20;99.90
53053;DHT22;38934;52.690;6.184;2023-02-13T11:44:43;10.30;99.90
53053;DHT22;38934;52.690;6.184;2023-02-13T11:47:13;10.30;99.90
53053;DHT22;38934;52.690;6.184;2023-02-13T11:49:44;10.40;99.90
53053;DHT22;38934;52.690;6.184;2023-02-13T11:52:24;10.40;99.90
53053;DHT22;38934;52.690;6.184;2023-02-13T11:54:58;10.40;99.90
53053;DHT22;38934;52.690;6.184;2023-02-13T11:59:53;10.50;99.90
53053;DHT22;38934;52.690;6.184;2023-02-13T12:02:24;10.50;99.90
53053;DHT22;38934;52.690;6.184;2023-02-13T12:05:17;10.60;99.90
53053;DHT22;38934;52.690;6.184;2023-02-13T12:07:41;10.50;99.90
53053;DHT22;38934;52.690;6.184;2023-02-13T12:10:26;10.60;99.90
53053;DHT22;38934;52.690;6.184;2023-02-13T12:13:19;10.60;99.90
53053;DHT22;38934;52.690;6.184;2023-02-13T12:15:46;10.60;99.90
53053;DHT22;38934;52.690;6.184;2023-02-13T12:18:20;10.60;99.90
53053;DHT22;38934;52.690;6.184;2023-02-13T12:23:36;10.60;99.90
53053;DHT22;38934;52.690;6.184;2023-02-13T12:26:15;10.60;99.90
53053;DHT22;38934;52.690;6.184;2023-02-13T12:28:52;10.60;99.90
53053;DHT22;38934;52.690;6.184;2023-02-13T12:31:31;10.50;99.90
53053;DHT22;38934;52.690;6.184;2023-02-13T12:37:30;10.60;99.90
53053;DHT22;38934;52.690;6.184;2023-02-13T12:43:11;10.50;99.90
53053;DHT22;38934;52.690;6.184;2023-02-13T12:45:52;10.50;99.90
53053;DHT22;38934;52.690;6.184;2023-02-13T12:56:27;10.60;99.90
53053;DHT22;38934;52.690;6.184;2023-02-13T12:59:00;10.70;99.90
53053;DHT22;38934;52.690;6.184;2023-02-13T13:05:05;10.70;99.90
53053;DHT22;38934;52.690;6.184;2023-02-13T13:08:01;10.70;99.90
53053;DHT22;38934;52.690;6.184;2023-02-13T13:13:26;10.60;99.90
53053;DHT22;38934;52.690;6.184;2023-02-13T13:16:03;10.50;99.90
53053;DHT22;38934;52.690;6.184;2023-02-13T13:19:07;11.30;99.90
53053;DHT22;38934;52.690;6.184;2023-02-13T13:24:34;10.40;99.90
53053;DHT22;38934;52.690;6.184;2023-02-13T13:27:15;10.40;99.90
53053;DHT22;38934;52.690;6.184;2023-02-13T13:29:45;10.40;99.90
53053;DHT22;38934;52.690;6.184;2023-02-13T13:32:16;10.40;99.90
53053;DHT22;38934;52.690;6.184;2023-02-13T13:34:44;10.40;99.90
53053;DHT22;38934;52.690;6.184;2023-02-13T13:40:32;10.40;99.90
53053;DHT22;38934;52.690;6.184;2023-02-13T13:43:03;10.40;99.90
53053;DHT22;38934;52.690;6.184;2023-02-13T13:48:49;10.60;99.90
53053;DHT22;38934;52.690;6.184;2023-02-13T13:51:18;10.70;99.90
53053;DHT22;38934;52.690;6.184;2023-02-13T13:56:26;10.70;99.90
53053;DHT22;38934;52.690;6.184;2023-02-13T13:58:52;11.40;99.90
53053;DHT22;38934;52.690;6.184;2023-02-13T14:01:30;11.10;99.90
53053;DHT22;38934;52.690;6.184;2023-02-13T14:04:36;10.60;99.90
53053;DHT22;38934;52.690;6.184;2023-02-13T14:11:55;10.30;99.90
53053;DHT22;38934;52.690;6.184;2023-02-13T14:17:00;10.30;99.90
53053;DHT22;38934;52.690;6.184;2023-02-13T14:19:35;10.20;99.90
53053;DHT22;38934;52.690;6.184;2023-02-13T14:22:25;10.30;99.90
53053;DHT22;38934;52.690;6.184;2023-02-13T14:25:22;10.30;99.90
53053;DHT22;38934;52.690;6.184;2023-02-13T14:27:58;10.40;99.90
53053;DHT22;38934;52.690;6.184;2023-02-13T14:30:31;10.30;99.90
53053;DHT22;38934;52.690;6.184;2023-02-13T14:33:22;10.40;99.90
53053;DHT22;38934;52.690;6.184;2023-02-13T14:36:08;10.30;99.90
53053;DHT22;38934;52.690;6.184;2023-02-13T14:38:43;11.20;99.90
53053;DHT22;38934;52.690;6.184;2023-02-13T14:46:59;10.30;99.90
53053;DHT22;38934;52.690;6.184;2023-02-13T14:49:28;10.30;99.90
53053;DHT22;38934;52.690;6.184;2023-02-13T14:51:57;10.20;99.90
53053;DHT22;38934;52.690;6.184;2023-02-13T14:57:17;10.10;99.90
53053;DHT22;38934;52.690;6.184;2023-02-13T14:59:51;10.00;99.90
53053;DHT22;38934;52.690;6.184;2023-02-13T15:02:30;9.90;99.90
53053;DHT22;38934;52.690;6.184;2023-02-13T15:05:01;9.80;99.90
53053;DHT22;38934;52.690;6.184;2023-02-13T15:07:34;9.70;99.90
53053;DHT22;38934;52.690;6.184;2023-02-13T15:10:19;9.70;99.90
53053;DHT22;38934;52.690;6.184;2023-02-13T15:13:01;9.60;99.90
53053;DHT22;38934;52.690;6.184;2023-02-13T15:15:33;9.50;99.90
53053;DHT22;38934;52.690;6.184;2023-02-13T15:18:07;9.50;99.90
53053;DHT22;38934;52.690;6.184;2023-02-13T15:20:38;9.50;99.90
53053;DHT22;38934;52.690;6.184;2023-02-13T15:23:05;9.40;99.90
53053;DHT22;38934;52.690;6.184;2023-02-13T15:25:37;9.40;99.90
53053;DHT22;38934;52.690;6.184;2023-02-13T15:28:07;9.40;99.90
53053;DHT22;38934;52.690;6.184;2023-02-13T15:30:39;9.40;99.90
53053;DHT22;38934;52.690;6.184;2023-02-13T15:33:19;9.40;99.90
53053;DHT22;38934;52.690;6.184;2023-02-13T15:35:45;9.30;99.90
53053;DHT22;38934;52.690;6.184;2023-02-13T15:40:51;9.20;99.90
53053;DHT22;38934;52.690;6.184;2023-02-13T15:43:38;9.20;99.90
53053;DHT22;38934;52.690;6.184;2023-02-13T15:46:07;9.20;99.90
53053;DHT22;38934;52.690;6.184;2023-02-13T15:48:43;9.10;99.90
53053;DHT22;38934;52.690;6.184;2023-02-13T15:51:21;9.10;99.90
53053;DHT22;38934;52.690;6.184;2023-02-13T15:53:58;9.00;99.90
53053;DHT22;38934;52.690;6.184;2023-02-13T15:56:25;9.00;99.90
53053;DHT22;38934;52.690;6.184;2023-02-13T15:58:53;9.00;99.90
53053;DHT22;38934;52.690;6.184;2023-02-13T16:01:19;8.90;99.90
53053;DHT22;38934;52.690;6.184;2023-02-13T16:03:52;8.90;99.90
53053;DHT22;38934;52.690;6.184;2023-02-13T16:06:19;8.80;99.90
53053;DHT22;38934;52.690;6.184;2023-02-13T16:08:51;8.70;99.90
53053;DHT22;38934;52.690;6.184;2023-02-13T16:14:03;8.60;99.90
53053;DHT22;38934;52.690;6.184;2023-02-13T16:16:34;8.90;99.90
53053;DHT22;38934;52.690;6.184;2023-02-13T16:19:01;8.50;99.90
53053;DHT22;38934;52.690;6.184;2023-02-13T16:21:28;9.00;99.90
53053;DHT22;38934;52.690;6.184;2023-02-13T16:24:03;8.30;99.90
53053;DHT22;38934;52.690;6.184;2023-02-13T16:26:30;8.30;99.90
53053;DHT22;38934;52.690;6.184;2023-02-13T16:29:00;8.20;99.90
53053;DHT22;38934;52.690;6.184;2023-02-13T16:31:26;8.10;99.90
53053;DHT22;38934;52.690;6.184;2023-02-13T16:33:51;8.10;99.90
53053;DHT22;38934;52.690;6.184;2023-02-13T16:36:25;8.00;99.90
53053;DHT22;38934;52.690;6.184;2023-02-13T16:38:51;7.90;99.90
53053;DHT22;38934;52.690;6.184;2023-02-13T16:43:50;7.70;99.90
53053;DHT22;38934;52.690;6.184;2023-02-13T16:53:58;7.30;99.90
53053;DHT22;38934;52.690;6.184;2023-02-13T16:56:24;7.30;99.90
53053;DHT22;38934;52.690;6.184;2023-02-13T16:58:49;7.20;99.90
53053;DHT22;38934;52.690;6.184;2023-02-13T17:01:15;7.10;99.90
53053;DHT22;38934;52.690;6.184;2023-02-13T17:03:42;7.00;99.90
53053;DHT22;38934;52.690;6.184;2023-02-13T17:06:09;6.90;99.90
53053;DHT22;38934;52.690;6.184;2023-02-13T17:08:35;6.90;99.90
53053;DHT22;38934;52.690;6.184;2023-02-13T17:11:03;6.80;99.90
53053;DHT22;38934;52.690;6.184;2023-02-13T17:13:29;6.70;99.90
53053;DHT22;38934;52.690;6.184;2023-02-13T17:15:55;6.60;99.90
53053;DHT22;38934;52.690;6.184;2023-02-13T17:18:21;6.60;99.90
53053;DHT22;38934;52.690;6.184;2023-02-13T17:20:46;6.50;99.90
53053;DHT22;38934;52.690;6.184;2023-02-13T17:23:19;6.40;99.90
53053;DHT22;38934;52.690;6.184;2023-02-13T17:25:54;6.40;99.90
53053;DHT22;38934;52.690;6.184;2023-02-13T17:28:24;6.30;99.90
53053;DHT22;38934;52.690;6.184;2023-02-13T17:30:52;6.30;99.90
53053;DHT22;38934;52.690;6.184;2023-02-13T17:33:27;6.20;99.90
53053;DHT22;38934;52.690;6.184;2023-02-13T17:35:53;6.10;99.90
53053;DHT22;38934;52.690;6.184;2023-02-13T17:38:19;6.10;99.90
53053;DHT22;38934;52.690;6.184;2023-02-13T17:40:45;6.10;99.90
53053;DHT22;38934;52.690;6.184;2023-02-13T17:43:12;6.00;99.90
53053;DHT22;38934;52.690;6.184;2023-02-13T17:45:39;6.00;99.90
53053;DHT22;38934;52.690;6.184;2023-02-13T17:48:04;5.90;99.90
53053;DHT22;38934;52.690;6.184;2023-02-13T17:50:43;5.90;99.90
53053;DHT22;38934;52.690;6.184;2023-02-13T17:53:23;5.80;99.90
53053;DHT22;38934;52.690;6.184;2023-02-13T17:55:49;5.70;99.90
53053;DHT22;38934;52.690;6.184;2023-02-13T17:58:15;5.70;99.90
53053;DHT22;38934;52.690;6.184;2023-02-13T18:00:40;5.60;99.90
53053;DHT22;38934;52.690;6.184;2023-02-13T18:03:06;5.60;99.90
53053;DHT22;38934;52.690;6.184;2023-02-13T18:05:32;5.60;99.90
53053;DHT22;38934;52.690;6.184;2023-02-13T18:07:58;5.60;99.90
53053;DHT22;38934;52.690;6.184;2023-02-13T18:10:28;5.50;99.90
53053;DHT22;38934;52.690;6.184;2023-02-13T18:12:58;5.50;99.90
53053;DHT22;38934;52.690;6.184;2023-02-13T18:15:29;5.40;99.90
53053;DHT22;38934;52.690;6.184;2023-02-13T18:17:55;5.40;99.90
53053;DHT22;38934;52.690;6.184;2023-02-13T18:20:21;5.30;99.90
53053;DHT22;38934;52.690;6.184;2023-02-13T18:22:47;5.40;99.90
53053;DHT22;38934;52.690;6.184;2023-02-13T18:25:15;5.30;99.90
53053;DHT22;38934;52.690;6.184;2023-02-13T18:27:40;5.30;99.90
53053;DHT22;38934;52.690;6.184;2023-02-13T18:30:07;5.20;99.90
53053;DHT22;38934;52.690;6.184;2023-02-13T18:32:34;5.20;99.90
53053;DHT22;38934;52.690;6.184;2023-02-13T18:35:00;5.10;99.90
53053;DHT22;38934;52.690;6.184;2023-02-13T18:37:27;5.10;99.90
53053;DHT22;38934;52.690;6.184;2023-02-13T18:39:55;5.10;99.90